createdAt,value
2023-05-05T00:01:30.389Z,99159.19
2023-05-05T00:03:57.032Z,99162.25
2023-05-05T00:06:25.063Z,99162.31
2023-05-05T00:08:51.674Z,99159.91
2023-05-05T00:11:18.366Z,99151.09
2023-05-05T00:13:44.950Z,99143.72
2023-05-05T00:16:11.568Z,99147.38
2023-05-05T00:18:38.249Z,99143.22
2023-05-05T00:21:04.891Z,99146.34
2023-05-05T00:23:33.006Z,99146.69
2023-05-05T00:25:59.692Z,99152.22
2023-05-05T00:28:26.357Z,99146.47
2023-05-05T00:30:53.122Z,99148.31
2023-05-05T00:33:19.822Z,99145.63
2023-05-05T00:35:46.599Z,99151.63
2023-05-05T00:38:13.186Z,99153.09
2023-05-05T00:40:41.324Z,99144.56
2023-05-05T00:43:08.278Z,99146.19
2023-05-05T00:45:37.052Z,99146.47
2023-05-05T00:48:03.952Z,99149.75
2023-05-05T00:50:31.179Z,99147.06
2023-05-05T00:53:01.193Z,99144.41
2023-05-05T00:55:28.564Z,99144.75
2023-05-05T00:57:57.511Z,99149.22
2023-05-05T01:00:24.463Z,99142.72
2023-05-05T01:02:52.280Z,99143.22
2023-05-05T01:05:19.418Z,99143.84
2023-05-05T01:07:52.309Z,99149.00
2023-05-05T01:10:22.990Z,99145.22
2023-05-05T01:12:53.825Z,99153.25
2023-05-05T01:15:28.353Z,99144.16
2023-05-05T01:17:59.610Z,99142.53
2023-05-05T01:20:29.264Z,99146.88
2023-05-05T01:22:58.405Z,99147.06
2023-05-05T01:25:37.165Z,99153.88
2023-05-05T01:28:11.340Z,99149.72
2023-05-05T01:30:53.045Z,99156.88
2023-05-05T01:33:36.291Z,99147.91
2023-05-05T01:36:09.142Z,99155.72
2023-05-05T01:38:38.069Z,99161.88
2023-05-05T01:41:07.581Z,99152.72
2023-05-05T01:43:35.187Z,99148.88
2023-05-05T01:46:02.433Z,99159.88
2023-05-05T01:48:33.519Z,99159.88
2023-05-05T01:51:00.788Z,99155.84
2023-05-05T01:53:29.614Z,99161.69
2023-05-05T01:55:57.313Z,99163.31
2023-05-05T01:58:25.399Z,99164.69
2023-05-05T02:00:52.665Z,99159.88
2023-05-05T02:03:21.122Z,99172.16
2023-05-05T02:05:49.642Z,99161.00
2023-05-05T02:08:16.851Z,99161.84
2023-05-05T02:10:45.040Z,99166.31
2023-05-05T02:13:13.315Z,99160.44
2023-05-05T02:15:40.608Z,99172.94
2023-05-05T02:18:07.741Z,99172.41
2023-05-05T02:20:36.117Z,99166.72
2023-05-05T02:23:05.664Z,99168.66
2023-05-05T02:25:35.505Z,99172.13
2023-05-05T02:28:03.881Z,99169.41
2023-05-05T02:30:33.535Z,99169.09
2023-05-05T02:33:06.225Z,99170.88
2023-05-05T02:35:35.832Z,99169.78
2023-05-05T02:38:05.622Z,99173.28
2023-05-05T02:40:38.555Z,99174.84
2023-05-05T02:43:08.187Z,99171.25
2023-05-05T02:45:34.886Z,99177.56
2023-05-05T02:48:02.849Z,99173.94
2023-05-05T02:50:31.254Z,99173.66
2023-05-05T02:53:09.464Z,99183.28
2023-05-05T02:55:39.298Z,99184.31
2023-05-05T02:58:08.560Z,99176.66
2023-05-05T03:00:43.851Z,99184.31
2023-05-05T03:03:17.776Z,99182.28
2023-05-05T03:05:51.536Z,99182.47
2023-05-05T03:08:25.851Z,99183.94
2023-05-05T03:10:58.984Z,99183.63
2023-05-05T03:13:28.536Z,99183.78
2023-05-05T03:15:57.929Z,99178.97
2023-05-05T03:18:27.746Z,99183.66
2023-05-05T03:20:59.231Z,99178.97
2023-05-05T03:23:26.390Z,99178.81
2023-05-05T03:25:57.562Z,99172.03
2023-05-05T03:28:38.747Z,99172.88
2023-05-05T03:31:18.427Z,99175.31
2023-05-05T03:33:49.790Z,99170.00
2023-05-05T03:36:18.525Z,99170.00
2023-05-05T03:38:45.823Z,99176.97
2023-05-05T03:41:12.616Z,99179.44
2023-05-05T03:43:41.389Z,99181.63
2023-05-05T03:46:10.308Z,99181.25
2023-05-05T03:48:37.351Z,99179.59
2023-05-05T03:51:04.000Z,99183.56
2023-05-05T03:53:33.466Z,99179.91
2023-05-05T03:56:02.353Z,99177.75
2023-05-05T03:58:28.981Z,99181.22
2023-05-05T04:00:57.785Z,99184.38
2023-05-05T04:03:25.380Z,99180.25
2023-05-05T04:05:52.702Z,99187.53
2023-05-05T04:08:20.224Z,99187.22
2023-05-05T04:10:46.848Z,99185.56
2023-05-05T04:13:13.592Z,99181.06
2023-05-05T04:15:44.079Z,99178.59
2023-05-05T04:18:12.319Z,99182.78
2023-05-05T04:20:38.979Z,99183.75
2023-05-05T04:23:05.829Z,99181.09
2023-05-05T04:25:32.750Z,99177.47
2023-05-05T04:27:59.406Z,99181.94
2023-05-05T04:30:26.857Z,99176.66
2023-05-05T04:32:53.710Z,99186.28
2023-05-05T04:35:22.199Z,99182.66
2023-05-05T04:37:49.049Z,99189.94
2023-05-05T04:40:16.199Z,99193.94
2023-05-05T04:42:42.963Z,99188.97
2023-05-05T04:45:10.877Z,99192.25
2023-05-05T04:47:38.262Z,99189.19
2023-05-05T04:50:06.186Z,99194.44
2023-05-05T04:52:34.436Z,99191.34
2023-05-05T04:55:01.445Z,99195.00
2023-05-05T04:57:28.079Z,99192.78
2023-05-05T04:59:54.735Z,99202.03
2023-05-05T05:02:22.311Z,99196.50
2023-05-05T05:04:49.792Z,99211.81
2023-05-05T05:07:16.866Z,99203.69
2023-05-05T05:09:44.975Z,99204.41
2023-05-05T05:12:11.909Z,99211.19
2023-05-05T05:14:38.596Z,99207.78
2023-05-05T05:17:05.636Z,99216.63
2023-05-05T05:19:33.346Z,99201.34
2023-05-05T05:22:00.199Z,99212.84
2023-05-05T05:24:27.092Z,99214.03
2023-05-05T05:26:55.452Z,99211.56
2023-05-05T05:29:22.204Z,99205.72
2023-05-05T05:31:50.191Z,99207.03
2023-05-05T05:34:17.214Z,99208.66
2023-05-05T05:36:44.657Z,99205.75
2023-05-05T05:39:11.397Z,99204.03
2023-05-05T05:41:38.629Z,99203.31
2023-05-05T05:44:06.784Z,99196.06
2023-05-05T05:46:33.732Z,99201.16
2023-05-05T05:49:00.567Z,99199.13
2023-05-05T05:51:27.897Z,99203.44
2023-05-05T05:53:55.442Z,99197.41
2023-05-05T05:56:23.660Z,99203.53
2023-05-05T05:58:51.515Z,99204.00
2023-05-05T06:01:20.115Z,99213.59
2023-05-05T06:03:47.451Z,99213.09
2023-05-05T06:06:14.276Z,99205.06
2023-05-05T06:08:41.028Z,99203.50
2023-05-05T06:11:07.953Z,99204.28
2023-05-05T06:13:34.647Z,99210.63
2023-05-05T06:16:02.108Z,99203.94
2023-05-05T06:18:30.180Z,99209.63
2023-05-05T06:20:57.235Z,99212.28
2023-05-05T06:23:27.044Z,99207.25
2023-05-05T06:25:58.871Z,99211.53
2023-05-05T06:28:25.517Z,99214.25
2023-05-05T06:30:52.146Z,99207.75
2023-05-05T06:33:18.785Z,99214.91
2023-05-05T06:35:47.819Z,99204.63
2023-05-05T06:38:14.761Z,99208.34
2023-05-05T06:40:42.144Z,99210.00
2023-05-05T06:43:08.923Z,99209.03
2023-05-05T06:45:43.680Z,99211.06
2023-05-05T06:48:10.590Z,99211.75
2023-05-05T06:50:37.270Z,99213.34
2023-05-05T06:53:05.565Z,99214.28
2023-05-05T06:55:32.208Z,99224.84
2023-05-05T06:57:58.946Z,99224.78
2023-05-05T07:00:25.714Z,99218.66
2023-05-05T07:02:52.551Z,99223.13
2023-05-05T07:05:19.356Z,99228.84
2023-05-05T07:07:52.676Z,99230.75
2023-05-05T07:10:21.490Z,99223.28
2023-05-05T07:12:48.526Z,99225.81
2023-05-05T07:15:25.995Z,99226.00
2023-05-05T07:17:53.901Z,99227.31
2023-05-05T07:20:20.519Z,99224.84
2023-05-05T07:22:47.108Z,99225.84
2023-05-05T07:25:13.729Z,99221.22
2023-05-05T07:27:41.885Z,99226.16
2023-05-05T07:30:13.007Z,99223.47
2023-05-05T07:32:41.046Z,99226.81
2023-05-05T07:35:07.986Z,99221.88
2023-05-05T07:37:34.685Z,99213.22
2023-05-05T07:40:01.358Z,99213.97
2023-05-05T07:42:28.017Z,99223.16
2023-05-05T07:44:56.051Z,99221.97
2023-05-05T07:47:22.763Z,99216.88
2023-05-05T07:49:49.412Z,99223.28
2023-05-05T07:52:16.061Z,99226.47
2023-05-05T07:54:42.762Z,99217.28
2023-05-05T07:57:09.417Z,99213.13
2023-05-05T07:59:36.137Z,99215.06
2023-05-05T08:02:04.145Z,99213.13
2023-05-05T08:04:30.857Z,99210.72
2023-05-05T08:06:57.615Z,99209.72
2023-05-05T08:09:24.511Z,99212.13
2023-05-05T08:11:51.150Z,99216.13
2023-05-05T08:14:17.746Z,99213.63
2023-05-05T08:16:44.398Z,99221.41
2023-05-05T08:19:24.943Z,99225.31
2023-05-05T08:21:55.117Z,99221.94
2023-05-05T08:24:21.763Z,99226.22
2023-05-05T08:26:49.195Z,99218.34
2023-05-05T08:29:15.831Z,99223.06
2023-05-05T08:31:42.610Z,99220.56
2023-05-05T08:34:09.362Z,99215.75
2023-05-05T08:36:37.370Z,99213.16
2023-05-05T08:39:04.131Z,99214.41
2023-05-05T08:41:31.101Z,99219.00
2023-05-05T08:43:57.784Z,99207.06
2023-05-05T08:46:26.825Z,99204.09
2023-05-05T08:48:55.084Z,99205.13
2023-05-05T08:51:22.065Z,99212.22
2023-05-05T08:53:56.425Z,99210.22
2023-05-05T08:56:25.869Z,99198.94
2023-05-05T08:58:52.634Z,99204.22
2023-05-05T09:01:19.937Z,99200.53
2023-05-05T09:03:46.835Z,99206.09
2023-05-05T09:06:13.555Z,99204.69
2023-05-05T09:08:40.410Z,99204.72
2023-05-05T09:11:08.452Z,99201.78
2023-05-05T09:13:35.100Z,99197.13
2023-05-05T09:16:01.755Z,99205.50
2023-05-05T09:18:28.932Z,99210.06
2023-05-05T09:20:56.859Z,99213.56
2023-05-05T09:23:25.507Z,99214.41
2023-05-05T09:26:03.826Z,99219.03
2023-05-05T09:28:32.279Z,99216.25
2023-05-05T09:31:11.983Z,99216.34
2023-05-05T09:33:39.352Z,99215.59
2023-05-05T09:36:06.328Z,99215.03
2023-05-05T09:38:34.382Z,99213.50
2023-05-05T09:41:01.033Z,99209.13
2023-05-05T09:43:27.700Z,99203.09
2023-05-05T09:46:05.715Z,99201.91
2023-05-05T09:48:32.517Z,99208.25
2023-05-05T09:50:59.660Z,99200.72
2023-05-05T09:53:26.664Z,99203.66
2023-05-05T09:55:54.464Z,99191.69
2023-05-05T09:58:24.337Z,99199.66
2023-05-05T10:00:51.467Z,99188.00
2023-05-05T10:03:19.814Z,99185.41
2023-05-05T10:05:50.677Z,99182.59
2023-05-05T10:08:18.262Z,99173.94
2023-05-05T10:10:51.432Z,99170.91
2023-05-05T10:13:19.035Z,99166.72
2023-05-05T10:15:47.130Z,99163.97
2023-05-05T10:18:14.813Z,99168.00
2023-05-05T10:20:43.922Z,99174.03
2023-05-05T10:23:12.769Z,99174.41
2023-05-05T10:25:42.203Z,99167.44
2023-05-05T10:28:11.805Z,99160.28
2023-05-05T10:30:43.201Z,99167.59
2023-05-05T10:33:30.027Z,99162.44
2023-05-05T10:36:01.478Z,99161.88
2023-05-05T10:38:28.816Z,99164.94
2023-05-05T10:40:56.458Z,99149.16
2023-05-05T10:43:23.385Z,99148.69
2023-05-05T10:45:50.264Z,99146.47
2023-05-05T10:48:22.791Z,99152.56
2023-05-05T10:50:51.544Z,99148.47
2023-05-05T10:53:22.279Z,99150.94
2023-05-05T10:55:54.215Z,99144.44
2023-05-05T10:58:38.510Z,99146.59
2023-05-05T11:01:10.818Z,99139.59
2023-05-05T11:03:37.611Z,99139.97
2023-05-05T11:06:12.650Z,99138.44
2023-05-05T11:08:42.081Z,99133.78
2023-05-05T11:11:10.534Z,99126.91
2023-05-05T11:13:37.969Z,99127.91
2023-05-05T11:16:05.443Z,99125.44
2023-05-05T11:18:36.486Z,99126.84
2023-05-05T11:21:15.721Z,99128.13
2023-05-05T11:23:44.598Z,99120.94
2023-05-05T11:26:11.731Z,99123.53
2023-05-05T11:28:53.253Z,99123.91
2023-05-05T11:31:20.102Z,99117.44
2023-05-05T11:33:46.965Z,99116.66
2023-05-05T11:36:14.545Z,99126.56
2023-05-05T11:38:52.893Z,99117.63
2023-05-05T11:41:28.035Z,99110.63
2023-05-05T11:44:08.208Z,99111.56
2023-05-05T11:46:34.935Z,99109.44
2023-05-05T11:49:01.570Z,99106.28
2023-05-05T11:51:28.607Z,99108.16
2023-05-05T11:53:58.383Z,99110.03
2023-05-05T11:56:25.950Z,99106.38
2023-05-05T11:59:06.038Z,99111.06
2023-05-05T12:01:32.948Z,99108.63
2023-05-05T12:03:59.807Z,99118.63
2023-05-05T12:06:27.573Z,99116.16
2023-05-05T12:08:54.230Z,99127.50
2023-05-05T12:11:22.225Z,99131.59
2023-05-05T12:13:48.875Z,99141.75
2023-05-05T12:16:15.958Z,99143.97
2023-05-05T12:18:42.740Z,99145.78
2023-05-05T12:21:16.027Z,99157.03
2023-05-05T12:23:42.840Z,99164.72
2023-05-05T12:26:24.871Z,99170.81
2023-05-05T12:28:51.652Z,99190.91
2023-05-05T12:31:18.286Z,99201.78
2023-05-05T12:33:45.345Z,99208.34
2023-05-05T12:36:12.298Z,99211.66
2023-05-05T12:38:39.496Z,99218.44
2023-05-05T12:41:06.172Z,99229.63
2023-05-05T12:43:35.133Z,99223.09
2023-05-05T12:46:02.613Z,99230.59
2023-05-05T12:48:29.289Z,99236.22
2023-05-05T12:51:09.490Z,99236.31
2023-05-05T12:53:36.061Z,99246.44
2023-05-05T12:56:03.130Z,99247.59
2023-05-05T12:58:32.663Z,99248.13
2023-05-05T13:01:10.226Z,99246.19
2023-05-05T13:03:36.943Z,99240.97
2023-05-05T13:06:18.380Z,99233.94
2023-05-05T13:08:45.109Z,99225.75
2023-05-05T13:11:12.234Z,99222.13
2023-05-05T13:13:38.886Z,99217.19
2023-05-05T13:16:05.966Z,99220.56
2023-05-05T13:18:42.909Z,99219.56
2023-05-05T13:21:09.540Z,99212.16
2023-05-05T13:23:36.187Z,99210.03
2023-05-05T13:26:03.445Z,99198.81
2023-05-05T13:28:30.134Z,99192.28
2023-05-05T13:30:58.675Z,99188.06
2023-05-05T13:33:25.392Z,99182.38
2023-05-05T13:35:53.352Z,99182.75
2023-05-05T13:38:20.068Z,99168.19
2023-05-05T13:40:46.758Z,99159.66
2023-05-05T13:43:13.563Z,99145.97
2023-05-05T13:45:41.762Z,99161.56
2023-05-05T13:48:08.787Z,99149.50
2023-05-05T13:50:35.486Z,99147.44
2023-05-05T13:53:03.521Z,99134.09
2023-05-05T13:55:30.220Z,99132.13
2023-05-05T13:57:58.720Z,99132.53
2023-05-05T14:00:25.409Z,99127.19
2023-05-05T14:02:52.241Z,99127.09
2023-05-05T14:05:19.118Z,99129.88
2023-05-05T14:07:45.760Z,99130.13
2023-05-05T14:10:13.848Z,99125.34
2023-05-05T14:12:40.505Z,99151.50
2023-05-05T14:15:07.922Z,99148.63
2023-05-05T14:17:34.859Z,99131.63
2023-05-05T14:20:01.496Z,99137.50
2023-05-05T14:22:28.292Z,99130.97
2023-05-05T14:24:55.043Z,99130.97
2023-05-05T14:27:23.313Z,99134.47
2023-05-05T14:29:49.967Z,99131.22
2023-05-05T14:32:16.838Z,99133.28
2023-05-05T14:34:43.506Z,99115.97
2023-05-05T14:37:10.188Z,99123.25
2023-05-05T14:39:37.299Z,99108.34
2023-05-05T14:42:04.323Z,99110.09
2023-05-05T14:44:32.707Z,99106.34
2023-05-05T14:46:59.632Z,99108.25
2023-05-05T14:49:26.255Z,99112.31
2023-05-05T14:51:54.409Z,99098.78
2023-05-05T14:54:27.784Z,99101.41
2023-05-05T14:56:55.634Z,99110.31
2023-05-05T14:59:22.323Z,99102.28
2023-05-05T15:01:50.441Z,99097.00
2023-05-05T15:04:17.180Z,99098.66
2023-05-05T15:06:43.831Z,99099.53
2023-05-05T15:09:10.424Z,99109.22
2023-05-05T15:11:37.081Z,99107.06
2023-05-05T15:14:03.671Z,99109.22
2023-05-05T15:16:30.408Z,99110.81
2023-05-05T15:18:58.841Z,99108.66
2023-05-05T15:21:25.601Z,99106.53
2023-05-05T15:23:52.284Z,99110.38
2023-05-05T15:26:19.160Z,99116.72
2023-05-05T15:28:46.555Z,99115.78
2023-05-05T15:31:14.419Z,99117.69
2023-05-05T15:33:41.301Z,99119.59
2023-05-05T15:36:10.126Z,99119.63
2023-05-05T15:38:40.483Z,99119.41
2023-05-05T15:41:07.127Z,99129.28
2023-05-05T15:43:34.038Z,99128.66
2023-05-05T15:46:00.750Z,99128.56
2023-05-05T15:48:27.489Z,99130.31
2023-05-05T15:50:54.084Z,99126.91
2023-05-05T15:53:22.141Z,99138.84
2023-05-05T15:55:48.770Z,99140.78
2023-05-05T15:58:15.543Z,99141.72
2023-05-05T16:00:42.142Z,99141.38
2023-05-05T16:03:08.876Z,99130.56
2023-05-05T16:05:35.569Z,99138.97
2023-05-05T16:08:02.149Z,99141.44
2023-05-05T16:10:30.496Z,99138.34
2023-05-05T16:12:57.531Z,99147.41
2023-05-05T16:15:24.329Z,99142.63
2023-05-05T16:17:51.008Z,99137.94
2023-05-05T16:20:17.680Z,99142.47
2023-05-05T16:22:44.414Z,99147.13
2023-05-05T16:25:11.321Z,99147.03
2023-05-05T16:27:39.387Z,99150.09
2023-05-05T16:30:07.189Z,99150.00
2023-05-05T16:32:33.827Z,99159.84
2023-05-05T16:35:01.886Z,99166.34
2023-05-05T16:37:28.588Z,99161.91
2023-05-05T16:39:55.423Z,99160.28
2023-05-05T16:42:22.657Z,99159.66
2023-05-05T16:44:50.703Z,99164.59
2023-05-05T16:47:17.367Z,99175.44
2023-05-05T16:49:43.983Z,99169.50
2023-05-05T16:52:10.591Z,99170.56
2023-05-05T16:54:37.228Z,99167.00
2023-05-05T16:57:03.923Z,99170.91
2023-05-05T16:59:31.653Z,99165.59
2023-05-05T17:01:59.898Z,99175.28
2023-05-05T17:04:26.576Z,99173.75
2023-05-05T17:06:54.974Z,99165.53
2023-05-05T17:09:24.958Z,99166.09
2023-05-05T17:11:51.869Z,99162.50
2023-05-05T17:14:18.588Z,99161.22
2023-05-05T17:16:45.263Z,99168.44
2023-05-05T17:19:13.399Z,99160.66
2023-05-05T17:21:40.029Z,99162.25
2023-05-05T17:24:07.171Z,99164.75
2023-05-05T17:26:33.790Z,99156.38
2023-05-05T17:29:00.432Z,99163.34
2023-05-05T17:31:27.064Z,99151.66
2023-05-05T17:33:53.716Z,99157.84
2023-05-05T17:36:21.681Z,99157.00
2023-05-05T17:38:48.345Z,99155.13
2023-05-05T17:41:14.939Z,99158.34
2023-05-05T17:43:41.519Z,99154.09
2023-05-05T17:46:08.198Z,99160.56
2023-05-05T17:48:34.821Z,99153.63
2023-05-05T17:51:01.426Z,99151.97
2023-05-05T17:53:29.413Z,99158.25
2023-05-05T17:55:56.008Z,99161.75
2023-05-05T17:58:22.763Z,99159.69
2023-05-05T18:00:49.459Z,99157.56
2023-05-05T18:03:16.473Z,99160.91
2023-05-05T18:05:43.156Z,99154.41
2023-05-05T18:08:09.807Z,99148.53
2023-05-05T18:10:37.822Z,99156.16
2023-05-05T18:13:04.474Z,99163.03
2023-05-05T18:15:31.222Z,99159.00
2023-05-05T18:17:57.956Z,99152.06
2023-05-05T18:20:24.762Z,99160.88
2023-05-05T18:22:52.263Z,99154.78
2023-05-05T18:25:19.242Z,99165.16
2023-05-05T18:27:47.263Z,99168.81
2023-05-05T18:30:13.990Z,99171.81
2023-05-05T18:32:40.869Z,99163.16
2023-05-05T18:35:08.257Z,99159.78
2023-05-05T18:37:35.132Z,99165.94
2023-05-05T18:40:01.736Z,99163.56
2023-05-05T18:42:28.488Z,99160.13
2023-05-05T18:44:56.506Z,99166.03
2023-05-05T18:47:23.657Z,99166.59
2023-05-05T18:49:50.536Z,99164.72
2023-05-05T18:52:17.292Z,99171.00
2023-05-05T18:54:43.905Z,99167.75
2023-05-05T18:57:10.703Z,99159.31
2023-05-05T18:59:37.460Z,99161.22
2023-05-05T19:02:06.547Z,99163.25
2023-05-05T19:04:36.457Z,99171.88
2023-05-05T19:07:03.206Z,99171.56
2023-05-05T19:09:29.824Z,99181.19
2023-05-05T19:11:56.504Z,99172.56
2023-05-05T19:14:23.242Z,99183.81
2023-05-05T19:16:50.054Z,99177.69
2023-05-05T19:19:18.277Z,99192.06
2023-05-05T19:21:44.963Z,99193.41
2023-05-05T19:24:11.719Z,99193.25
2023-05-05T19:26:38.372Z,99193.59
2023-05-05T19:29:04.956Z,99188.97
2023-05-05T19:31:31.802Z,99199.09
2023-05-05T19:34:00.104Z,99196.72
2023-05-05T19:36:28.303Z,99193.06
2023-05-05T19:38:55.308Z,99195.56
2023-05-05T19:41:21.940Z,99196.28
2023-05-05T19:43:49.905Z,99195.13
2023-05-05T19:46:17.273Z,99198.56
2023-05-05T19:48:44.388Z,99198.41
2023-05-05T19:51:11.023Z,99203.88
2023-05-05T19:53:40.197Z,99209.88
2023-05-05T19:56:06.866Z,99209.56
2023-05-05T19:58:34.387Z,99210.69
2023-05-05T20:01:01.096Z,99214.50
2023-05-05T20:03:27.838Z,99213.19
2023-05-05T20:05:54.474Z,99215.84
2023-05-05T20:08:21.114Z,99215.84
2023-05-05T20:10:50.684Z,99220.34
2023-05-05T20:13:17.352Z,99226.81
2023-05-05T20:15:44.100Z,99225.13
2023-05-05T20:18:10.856Z,99236.13
2023-05-05T20:20:37.514Z,99229.09
2023-05-05T20:23:04.103Z,99238.88
2023-05-05T20:25:30.825Z,99239.19
2023-05-05T20:27:58.849Z,99234.88
2023-05-05T20:30:25.580Z,99231.88
2023-05-05T20:32:53.662Z,99228.38
2023-05-05T20:35:21.306Z,99234.63
2023-05-05T20:37:48.695Z,99239.22
2023-05-05T20:40:15.884Z,99238.16
2023-05-05T20:42:42.524Z,99244.75
2023-05-05T20:45:11.328Z,99239.56
2023-05-05T20:47:38.220Z,99238.25
2023-05-05T20:50:05.757Z,99241.25
2023-05-05T20:52:33.651Z,99244.09
2023-05-05T20:55:00.234Z,99237.97
2023-05-05T20:57:26.857Z,99248.06
2023-05-05T20:59:53.439Z,99244.88
2023-05-05T21:02:21.500Z,99243.53
2023-05-05T21:04:48.209Z,99244.03
2023-05-05T21:07:14.845Z,99248.13
2023-05-05T21:09:41.532Z,99243.25
2023-05-05T21:12:08.143Z,99244.38
2023-05-05T21:14:34.992Z,99244.59
2023-05-05T21:17:01.666Z,99239.13
2023-05-05T21:19:29.732Z,99248.03
2023-05-05T21:21:59.303Z,99254.50
2023-05-05T21:24:26.088Z,99245.56
2023-05-05T21:26:52.807Z,99242.91
2023-05-05T21:29:19.630Z,99244.94
2023-05-05T21:31:46.613Z,99239.19
2023-05-05T21:34:13.317Z,99239.03
2023-05-05T21:36:41.266Z,99240.25
2023-05-05T21:39:07.836Z,99237.97
2023-05-05T21:41:34.456Z,99233.19
2023-05-05T21:44:01.153Z,99232.78
2023-05-05T21:46:27.916Z,99233.03
2023-05-05T21:48:54.640Z,99232.97
2023-05-05T21:51:23.237Z,99224.56
2023-05-05T21:53:51.408Z,99229.38
2023-05-05T21:56:18.029Z,99222.22
2023-05-05T21:58:44.770Z,99217.28
2023-05-05T22:01:11.967Z,99219.06
2023-05-05T22:03:38.853Z,99224.56
2023-05-05T22:06:05.730Z,99227.06
2023-05-05T22:08:32.388Z,99222.59
2023-05-05T22:11:00.488Z,99226.19
2023-05-05T22:13:27.173Z,99228.63
2023-05-05T22:15:53.768Z,99232.25
2023-05-05T22:18:20.400Z,99226.38
2023-05-05T22:20:47.185Z,99236.41
2023-05-05T22:23:14.245Z,99233.69
2023-05-05T22:25:40.846Z,99235.97
2023-05-05T22:28:08.837Z,99246.69
2023-05-05T22:30:35.624Z,99236.81
2023-05-05T22:33:02.309Z,99243.47
2023-05-05T22:35:29.030Z,99243.47
2023-05-05T22:37:55.757Z,99250.94
2023-05-05T22:40:22.301Z,99241.84
2023-05-05T22:42:48.941Z,99256.13
2023-05-05T22:45:17.029Z,99245.72
2023-05-05T22:47:44.478Z,99245.41
2023-05-05T22:50:11.324Z,99243.44
2023-05-05T22:52:38.014Z,99245.03
2023-05-05T22:55:04.985Z,99252.78
2023-05-05T22:57:31.748Z,99252.00
2023-05-05T22:59:58.395Z,99252.06
2023-05-05T23:02:26.770Z,99238.97
2023-05-05T23:04:53.536Z,99238.78
2023-05-05T23:07:20.312Z,99239.19
2023-05-05T23:09:46.977Z,99240.50
2023-05-05T23:12:13.584Z,99236.16
2023-05-05T23:14:40.480Z,99233.88
2023-05-05T23:17:07.233Z,99236.13
2023-05-05T23:19:35.268Z,99231.63
2023-05-05T23:22:02.246Z,99240.06
2023-05-05T23:24:29.233Z,99240.44
2023-05-05T23:26:58.296Z,99240.06
2023-05-05T23:29:25.039Z,99243.72
2023-05-05T23:31:51.754Z,99238.94
2023-05-05T23:34:18.370Z,99237.34
2023-05-05T23:36:46.766Z,99232.41
2023-05-05T23:39:13.364Z,99228.78
2023-05-05T23:41:40.147Z,99233.78
2023-05-05T23:44:06.741Z,99228.75
2023-05-05T23:46:33.440Z,99231.53
2023-05-05T23:49:00.030Z,99230.47
2023-05-05T23:51:27.304Z,99226.56
2023-05-05T23:53:56.076Z,99228.81
2023-05-05T23:56:22.829Z,99218.47
2023-05-05T23:58:49.489Z,99221.56
